TimeMDT,TemperatureF,Dew PointF,Humidity,Sea Level PressureIn,VisibilityMPH,Wind Direction,Wind SpeedMPH,Gust SpeedMPH,PrecipitationIn,Events,Conditions,WindDirDegrees,DateUTC
12:53 AM,53.1,50.0,89,30.06,10.0,South,9.2,-,N/A,,Clear,180,2013-07-01 06:53:00
1:53 AM,52.0,48.0,86,30.06,10.0,SSE,6.9,-,N/A,,Clear,160,2013-07-01 07:53:00
2:53 AM,50.0,48.0,93,30.06,10.0,SSE,6.9,-,N/A,,Clear,160,2013-07-01 08:53:00
3:53 AM,48.9,46.9,93,30.07,10.0,SSW,8.1,-,N/A,,Clear,200,2013-07-01 09:53:00
4:53 AM,46.9,46.0,97,30.11,5.0,SSW,3.5,-,N/A,,Clear,210,2013-07-01 10:53:00
5:53 AM,48.0,46.9,96,30.15,10.0,South,6.9,-,N/A,,Clear,170,2013-07-01 11:53:00
6:53 AM,50.0,48.0,93,30.14,10.0,South,4.6,-,N/A,,Clear,180,2013-07-01 12:53:00
7:53 AM,55.0,50.0,83,30.14,10.0,SSW,3.5,-,N/A,,Clear,210,2013-07-01 13:53:00
8:53 AM,61.0,50.0,67,30.13,10.0,Calm,Calm,-,N/A,,Clear,0,2013-07-01 14:53:00
9:53 AM,66.9,50.0,54,30.11,10.0,Calm,Calm,-,N/A,,Clear,0,2013-07-01 15:53:00
10:53 AM,71.1,48.0,44,30.09,10.0,North,5.8,-,N/A,,Clear,350,2013-07-01 16:53:00
11:32 AM,71.6,46.4,41,30.39,-9999.0,NNW,5.8,-,N/A,Thunderstorm,Thunderstorm,340,2013-07-01 17:32:00
11:53 AM,68.0,46.9,47,30.08,-9999.0,East,6.9,-,N/A,Thunderstorm,Thunderstorm,80,2013-07-01 17:53:00
12:53 PM,64.0,54.0,70,30.12,10.0,East,5.8,-,0.08,Rain-Thunderstorm,Light Thunderstorms and Rain,80,2013-07-01 18:53:00
1:11 PM,64.4,48.2,56,30.39,10.0,Variable,6.9,-,0.00,,Mostly Cloudy,0,2013-07-01 19:11:00
1:35 PM,66.2,51.8,60,30.38,10.0,ENE,18.4,26.5,0.00,Thunderstorm,Partly Cloudy,60,2013-07-01 19:35:00
1:50 PM,68.0,51.8,56,30.38,10.0,NE,13.8,-,0.00,,Scattered Clouds,50,2013-07-01 19:50:00
1:53 PM,68.0,51.1,55,30.09,10.0,ENE,12.7,-,0.00,,Scattered Clouds,70,2013-07-01 19:53:00
2:53 PM,71.1,48.9,45,30.08,10.0,ENE,13.8,17.3,N/A,,Mostly Cloudy,70,2013-07-01 20:53:00
3:53 PM,73.9,46.0,37,30.07,10.0,NNE,11.5,19.6,N/A,,Mostly Cloudy,30,2013-07-01 21:53:00
4:53 PM,73.0,44.1,35,30.09,10.0,ENE,15.0,20.7,N/A,,Partly Cloudy,60,2013-07-01 22:53:00
5:53 PM,73.9,42.1,32,30.07,10.0,ENE,11.5,-,N/A,,Scattered Clouds,60,2013-07-01 23:53:00
6:53 PM,72.0,41.0,33,30.06,10.0,NNE,9.2,-,N/A,,Clear,30,2013-07-02 00:53:00
7:53 PM,66.0,50.0,56,30.08,10.0,SSE,12.7,-,N/A,,Clear,150,2013-07-02 01:53:00
8:53 PM,60.1,52.0,75,30.09,10.0,SE,8.1,-,N/A,,Clear,140,2013-07-02 02:53:00
9:53 PM,55.9,48.0,75,30.10,10.0,SE,13.8,-,N/A,,Clear,140,2013-07-02 03:53:00
10:53 PM,55.0,50.0,83,30.10,10.0,SSE,15.0,-,N/A,,Clear,160,2013-07-02 04:53:00
11:53 PM,53.1,50.0,89,30.11,8.0,South,8.1,-,N/A,,Mostly Cloudy,180,2013-07-02 05:53:00